Time;durP1;ratioP1;P1;durP2;ratioP2;P2;SDS_P1;SDS_P2;PMS_P1;PMS_P2;Temp;Humidity;BMP_temperature;BMP_pressure;BME280_temperature;BME280_humidity;BME280_pressure;Samples;Min_cycle;Max_cycle;Signal;HPM_P1;HPM_P2
2021/12/30 00:01:10;;;;;;;2.97;2.87;;;;;;;7.28;100.00;94488.03;5133842;27;20561;-50
2021/12/30 00:03:39;;;;;;;1.93;1.30;;;;;;;7.50;100.00;94481.38;5134518;27;20483;-50
2021/12/30 00:06:08;;;;;;;1.80;1.80;;;;;;;6.64;100.00;94493.16;5133995;27;20891;-50
2021/12/30 00:08:36;;;;;;;2.60;2.50;;;;;;;6.02;100.00;94511.81;5133086;27;20435;-50
2021/12/30 00:11:06;;;;;;;3.57;3.30;;;;;;;5.60;100.00;94504.81;5134190;27;20431;-51
2021/12/30 00:13:39;;;;;;;3.13;2.87;;;;;;;5.82;100.00;94520.38;5134249;27;20836;-50
2021/12/30 00:16:07;;;;;;;1.90;1.80;;;;;;;5.87;100.00;94525.69;5133887;27;20521;-50
2021/12/30 00:18:36;;;;;;;2.30;2.20;;;;;;;5.90;100.00;94519.91;5133786;27;20458;-51
2021/12/30 00:21:04;;;;;;;4.10;2.27;;;;;;;6.17;100.00;94511.81;5132808;27;20908;-51
2021/12/30 00:23:32;;;;;;;2.87;2.53;;;;;;;6.67;100.00;94513.69;5133217;27;20576;-51
2021/12/30 00:26:01;;;;;;;1.70;1.70;;;;;;;7.08;100.00;94503.91;5133092;27;20487;-50
2021/12/30 00:28:30;;;;;;;1.00;0.57;;;;;;;7.29;100.00;94506.22;5133604;27;20518;-50
2021/12/30 00:31:00;;;;;;;1.80;1.03;;;;;;;6.66;100.00;94396.25;5133565;27;20473;-50
2021/12/30 00:33:30;;;;;;;1.03;1.03;;;;;;;7.30;100.00;94499.88;5133617;27;20435;-50
2021/12/30 00:35:59;;;;;;;0.83;0.83;;;;;;;6.86;100.00;94444.41;5132615;27;20509;-51
2021/12/30 00:38:27;;;;;;;0.70;0.70;;;;;;;7.05;100.00;94499.94;5134015;27;20450;-50
2021/12/30 00:40:56;;;;;;;0.60;0.60;;;;;;;7.32;100.00;94494.34;5133339;27;20554;-51
2021/12/30 00:43:24;;;;;;;0.47;0.47;;;;;;;7.30;100.00;94491.97;5133424;27;20462;-50
2021/12/30 00:45:53;;;;;;;2.83;2.40;;;;;;;7.24;100.00;94468.53;5132398;27;20509;-51
2021/12/30 00:48:23;;;;;;;1.03;1.03;;;;;;;6.94;100.00;94486.00;5133218;27;20467;-50
2021/12/30 00:50:53;;;;;;;3.97;3.77;;;;;;;6.68;100.00;94504.75;5133540;27;20427;-50
2021/12/30 00:53:21;;;;;;;4.80;4.23;;;;;;;6.03;100.00;94502.84;5133522;27;20509;-51
2021/12/30 00:55:49;;;;;;;0.97;0.97;;;;;;;6.08;100.00;94501.00;5133255;27;20506;-51
2021/12/30 00:58:18;;;;;;;3.97;2.30;;;;;;;6.31;100.00;94513.69;5133135;27;20426;-50
2021/12/30 01:00:48;;;;;;;2.60;2.50;;;;;;;6.45;100.00;94513.16;5132895;27;20569;-51
2021/12/30 01:03:17;;;;;;;2.70;2.60;;;;;;;6.90;100.00;94503.41;5133183;27;20419;-51
2021/12/30 01:05:47;;;;;;;1.83;1.70;;;;;;;7.08;100.00;94498.63;5133328;27;20894;-51
2021/12/30 01:08:16;;;;;;;0.30;0.23;;;;;;;7.30;100.00;94491.19;5133576;27;20868;-51
2021/12/30 01:10:46;;;;;;;2.40;1.37;;;;;;;7.36;100.00;94485.63;5132951;27;20518;-51
2021/12/30 01:13:20;;;;;;;0.80;0.80;;;;;;;6.89;100.00;94488.66;5132967;27;20450;-50
2021/12/30 01:15:57;;;;;;;0.77;0.77;;;;;;;6.61;100.00;94509.47;5133252;28;20454;-50
2021/12/30 01:18:37;;;;;;;5.07;1.40;;;;;;;6.34;100.00;94413.16;5133225;27;20514;-51
2021/12/30 01:21:10;;;;;;;5.40;1.97;;;;;;;6.81;100.00;94489.19;5132633;28;20560;-51
2021/12/30 01:23:41;;;;;;;1.23;1.23;;;;;;;6.79;100.00;94479.97;5132898;28;20907;-50
2021/12/30 01:26:10;;;;;;;0.50;0.50;;;;;;;7.15;100.00;94485.97;5132909;27;20886;-50
2021/12/30 01:28:40;;;;;;;1.10;1.00;;;;;;;7.25;100.00;94489.38;5132873;28;20419;-50
2021/12/30 01:31:09;;;;;;;0.87;0.87;;;;;;;7.04;100.00;94482.56;5132734;28;20426;-51
2021/12/30 01:33:39;;;;;;;1.50;1.50;;;;;;;7.05;100.00;94492.06;5132753;28;20430;-51
2021/12/30 01:36:09;;;;;;;2.47;2.37;;;;;;;7.25;100.00;94489.38;5134700;27;20511;-51
2021/12/30 01:38:37;;;;;;;0.70;0.70;;;;;;;7.38;100.00;94477.47;5136857;27;20483;-51
2021/12/30 01:41:08;;;;;;;3.33;3.17;;;;;;;7.07;100.00;94413.53;5136680;27;20886;-51
2021/12/30 01:43:37;;;;;;;1.07;1.07;;;;;;;7.03;100.00;94488.91;5136691;27;20462;-51
2021/12/30 01:46:07;;;;;;;2.13;2.03;;;;;;;6.99;100.00;94498.38;5136748;27;20483;-51
2021/12/30 01:48:36;;;;;;;1.77;1.33;;;;;;;7.24;100.00;94498.31;5136597;27;20426;-51
2021/12/30 01:51:08;;;;;;;0.40;0.37;;;;;;;7.58;100.00;94496.63;5136924;27;20426;-50
2021/12/30 01:53:36;;;;;;;0.40;0.40;;;;;;;7.45;100.00;94494.56;5136858;27;20438;-50
2021/12/30 01:56:06;;;;;;;0.50;0.43;;;;;;;7.50;100.00;94504.31;5136871;27;20447;-51
2021/12/30 01:58:36;;;;;;;0.40;0.40;;;;;;;7.41;100.00;94505.94;5136424;27;20454;-50
2021/12/30 02:01:05;;;;;;;0.30;0.23;;;;;;;7.29;100.00;94500.94;5136521;27;20542;-50
2021/12/30 02:03:34;;;;;;;0.63;0.63;;;;;;;7.45;100.00;94505.13;5136672;27;20480;-50
2021/12/30 02:06:03;;;;;;;0.60;0.60;;;;;;;7.39;100.00;94494.84;5136382;27;20462;-50
2021/12/30 02:08:33;;;;;;;0.40;0.30;;;;;;;7.43;100.00;94496.69;5136326;27;20998;-50
2021/12/30 02:11:01;;;;;;;2.00;0.77;;;;;;;7.53;100.00;94490.59;5136194;27;20525;-51
2021/12/30 02:13:30;;;;;;;0.63;0.63;;;;;;;7.40;100.00;94489.31;5136310;27;20454;-50
2021/12/30 02:16:01;;;;;;;0.37;0.27;;;;;;;7.24;100.00;94485.13;5136203;27;20478;-50
2021/12/30 02:18:31;;;;;;;0.40;0.30;;;;;;;7.34;100.00;94495.66;5136170;27;20516;-50
2021/12/30 02:21:02;;;;;;;0.43;0.33;;;;;;;7.46;100.00;94495.34;5136002;27;20504;-50
2021/12/30 02:23:32;;;;;;;0.40;0.33;;;;;;;7.32;100.00;94492.50;5135837;27;20462;-50
2021/12/30 02:26:03;;;;;;;0.40;0.40;;;;;;;7.33;100.00;94480.91;5135917;27;20427;-50
2021/12/30 02:28:34;;;;;;;0.30;0.23;;;;;;;7.73;100.00;94492.34;5135944;27;20450;-50
2021/12/30 02:31:06;;;;;;;1.07;1.07;;;;;;;7.48;100.00;94501.94;5136239;27;20506;-50
2021/12/30 02:33:34;;;;;;;0.40;0.40;;;;;;;7.59;100.00;94494.75;5135020;27;20517;-50
2021/12/30 02:36:04;;;;;;;0.30;0.20;;;;;;;7.56;100.00;94490.81;5135985;27;20809;-50
2021/12/30 02:38:33;;;;;;;0.50;0.50;;;;;;;7.58;100.00;94494.00;5135769;27;20513;-50
2021/12/30 02:41:02;;;;;;;0.63;0.63;;;;;;;7.59;100.00;94490.28;5135533;27;20462;-50
2021/12/30 02:43:32;;;;;;;0.57;0.30;;;;;;;7.68;100.00;94499.22;5135528;27;20462;-50
2021/12/30 02:46:02;;;;;;;0.40;0.30;;;;;;;7.79;100.00;94505.25;5135137;27;20553;-51
2021/12/30 02:48:32;;;;;;;5.50;0.77;;;;;;;7.67;100.00;94500.28;5135178;27;20439;-50
2021/12/30 02:51:02;;;;;;;0.30;0.23;;;;;;;7.73;100.00;94508.16;5135355;27;20463;-51
2021/12/30 02:53:32;;;;;;;0.30;0.20;;;;;;;7.80;100.00;94512.09;5135484;27;20450;-51
2021/12/30 02:56:01;;;;;;;0.30;0.30;;;;;;;7.84;100.00;94513.13;5135638;27;20855;-50
2021/12/30 02:58:30;;;;;;;0.30;0.20;;;;;;;8.04;100.00;94507.75;5135305;27;20836;-50
2021/12/30 03:01:01;;;;;;;0.70;0.70;;;;;;;8.00;100.00;94513.81;5134227;27;20521;-50
2021/12/30 03:03:30;;;;;;;0.30;0.30;;;;;;;7.93;100.00;94515.97;5135552;27;20782;-50
2021/12/30 03:06:00;;;;;;;0.30;0.30;;;;;;;7.84;100.00;94517.63;5135416;27;20430;-50
2021/12/30 03:08:29;;;;;;;0.30;0.20;;;;;;;7.79;100.00;94515.00;5135105;27;20513;-50
2021/12/30 03:11:00;;;;;;;0.30;0.30;;;;;;;7.97;100.00;94509.13;5135085;27;20469;-51
2021/12/30 03:13:31;;;;;;;0.40;0.40;;;;;;;7.74;100.00;94499.19;5134939;27;20430;-51
2021/12/30 03:16:03;;;;;;;0.40;0.37;;;;;;;7.67;100.00;94496.84;5135040;27;20415;-50
2021/12/30 03:18:32;;;;;;;0.30;0.30;;;;;;;7.82;100.00;94517.88;5135313;27;20444;-51
2021/12/30 03:21:02;;;;;;;0.73;0.70;;;;;;;7.82;100.00;94519.75;5135120;27;20494;-50
2021/12/30 03:23:30;;;;;;;0.30;0.30;;;;;;;7.84;100.00;94517.63;5134800;27;20430;-51
2021/12/30 03:26:00;;;;;;;0.30;0.20;;;;;;;7.91;100.00;94515.47;5134706;27;20525;-51
2021/12/30 03:28:29;;;;;;;1.23;1.17;;;;;;;7.78;100.00;94516.84;5134937;27;20510;-50
2021/12/30 03:30:59;;;;;;;0.30;0.20;;;;;;;7.99;100.00;94514.91;5134704;27;20449;-50
2021/12/30 03:33:28;;;;;;;0.40;0.30;;;;;;;7.95;100.00;94516.50;5134530;27;20434;-50
2021/12/30 03:35:59;;;;;;;0.30;0.20;;;;;;;7.80;100.00;94520.00;5134582;27;20978;-50
2021/12/30 03:38:28;;;;;;;0.40;0.27;;;;;;;7.71;100.00;94512.91;5134489;27;20438;-51
2021/12/30 03:40:56;;;;;;;0.30;0.30;;;;;;;7.93;100.00;94521.25;5134644;27;20882;-51
2021/12/30 03:43:27;;;;;;;0.30;0.20;;;;;;;7.85;100.00;94529.72;5134577;27;20430;-51
2021/12/30 03:45:55;;;;;;;1.07;1.07;;;;;;;7.71;100.00;94524.28;5134359;27;20477;-51
2021/12/30 03:48:31;;;;;;;0.40;0.40;;;;;;;7.60;100.00;94531.44;5134179;27;20445;-51
2021/12/30 03:51:04;;;;;;;0.60;0.60;;;;;;;7.61;100.00;94519.81;5134312;27;20470;-50
2021/12/30 03:53:37;;;;;;;0.63;0.63;;;;;;;7.85;100.00;94524.44;5134267;27;20525;-54
2021/12/30 03:56:06;;;;;;;0.80;0.57;;;;;;;7.90;100.00;94533.13;5134690;27;20434;-51
2021/12/30 03:58:37;;;;;;;0.40;0.27;;;;;;;7.93;100.00;94529.97;5134149;27;20513;-50
2021/12/30 04:01:06;;;;;;;0.30;0.20;;;;;;;7.94;100.00;94539.47;5133812;27;20462;-50
2021/12/30 04:03:35;;;;;;;0.50;0.50;;;;;;;7.87;100.00;94540.81;5134364;27;20521;-50
2021/12/30 04:06:03;;;;;;;0.40;0.40;;;;;;;7.71;100.00;94526.91;5133956;27;20809;-50
2021/12/30 04:08:32;;;;;;;0.30;0.20;;;;;;;8.07;100.00;94541.50;5134031;27;20521;-50
2021/12/30 04:11:01;;;;;;;0.30;0.20;;;;;;;7.71;100.00;94534.81;5134178;27;20806;-50
2021/12/30 04:13:29;;;;;;;0.70;0.70;;;;;;;7.78;100.00;94545.06;5133762;27;20438;-51
2021/12/30 04:15:59;;;;;;;1.77;1.67;;;;;;;8.02;100.00;94548.66;5133751;27;20514;-50
2021/12/30 04:18:28;;;;;;;0.67;0.67;;;;;;;7.99;100.00;94552.63;5133831;27;20968;-50
2021/12/30 04:20:56;;;;;;;1.80;1.07;;;;;;;7.91;100.00;94523.38;5133578;27;20426;-50
2021/12/30 04:23:25;;;;;;;0.30;0.20;;;;;;;8.20;100.00;94559.38;5133427;27;20899;-50
2021/12/30 04:25:53;;;;;;;0.60;0.60;;;;;;;7.76;100.00;94505.00;5133896;27;20507;-50
2021/12/30 04:28:22;;;;;;;0.60;0.50;;;;;;;8.17;100.00;94567.06;5133892;27;20430;-50
2021/12/30 04:30:51;;;;;;;0.30;0.20;;;;;;;8.20;100.00;94569.13;5133782;27;20917;-51
2021/12/30 04:33:21;;;;;;;0.60;0.60;;;;;;;8.13;100.00;94560.72;5133817;27;20505;-51
2021/12/30 04:35:56;;;;;;;0.30;0.30;;;;;;;8.08;100.00;94577.38;5133360;27;20458;-50
2021/12/30 04:38:25;;;;;;;0.53;0.53;;;;;;;8.19;100.00;94580.78;5133613;27;20502;-51
2021/12/30 04:40:53;;;;;;;0.30;0.20;;;;;;;8.45;100.00;94584.88;5133119;27;20455;-50
2021/12/30 04:43:22;;;;;;;0.40;0.30;;;;;;;8.50;100.00;94582.19;5133615;27;20501;-50
2021/12/30 04:45:51;;;;;;;0.40;0.30;;;;;;;8.58;100.00;94592.19;5133240;27;20439;-50
2021/12/30 04:48:22;;;;;;;0.30;0.20;;;;;;;8.21;100.00;94592.63;5133452;27;20438;-51
2021/12/30 04:50:51;;;;;;;0.30;0.20;;;;;;;8.32;100.00;94583.63;5132587;27;20454;-50
2021/12/30 04:53:19;;;;;;;0.30;0.20;;;;;;;8.57;100.00;94600.41;5133363;27;20875;-51
2021/12/30 04:55:49;;;;;;;0.30;0.20;;;;;;;8.70;100.00;94597.91;5133379;27;20427;-50
2021/12/30 04:58:18;;;;;;;0.30;0.20;;;;;;;8.47;100.00;94601.25;5133091;27;20514;-51
2021/12/30 05:00:46;;;;;;;0.30;0.20;;;;;;;8.10;100.00;94600.84;5132674;27;20474;-51
2021/12/30 05:03:15;;;;;;;0.40;0.40;;;;;;;7.99;100.00;94601.97;5132858;27;20513;-51
2021/12/30 05:05:48;;;;;;;0.37;0.27;;;;;;;7.88;100.00;94605.69;5132864;27;20883;-51
2021/12/30 05:08:18;;;;;;;0.70;0.70;;;;;;;8.04;100.00;94605.38;5133327;27;20505;-50
2021/12/30 05:10:46;;;;;;;0.40;0.27;;;;;;;7.74;100.00;94607.34;5132322;27;20465;-50
2021/12/30 05:13:16;;;;;;;0.50;0.30;;;;;;;7.90;100.00;94612.28;5132818;27;20426;-50
2021/12/30 05:15:46;;;;;;;0.30;0.20;;;;;;;7.83;100.00;94613.63;5132880;27;20465;-50
2021/12/30 05:18:17;;;;;;;0.30;0.30;;;;;;;7.95;100.00;94619.38;5132801;28;20417;-50
2021/12/30 05:20:46;;;;;;;0.30;0.20;;;;;;;7.73;100.00;94624.22;5132695;28;20462;-50
2021/12/30 05:23:15;;;;;;;0.40;0.40;;;;;;;7.67;100.00;94626.06;5132595;28;20554;-50
2021/12/30 05:25:43;;;;;;;1.33;0.87;;;;;;;7.56;100.00;94627.94;5132771;28;20453;-50
2021/12/30 05:28:12;;;;;;;2.33;0.40;;;;;;;7.50;100.00;94636.13;5132666;28;20419;-50
2021/12/30 05:30:40;;;;;;;0.70;0.70;;;;;;;7.57;100.00;94640.06;5133023;28;20506;-51
2021/12/30 05:33:09;;;;;;;0.30;0.20;;;;;;;7.59;100.00;94634.50;5132998;28;20426;-51
2021/12/30 05:35:38;;;;;;;0.53;0.53;;;;;;;7.44;100.00;94643.25;5132855;28;20453;-51
2021/12/30 05:38:07;;;;;;;0.30;0.30;;;;;;;7.49;100.00;94642.44;5132583;28;20505;-51
2021/12/30 05:40:36;;;;;;;0.30;0.20;;;;;;;7.38;100.00;94639.06;5132451;28;20459;-50
2021/12/30 05:43:04;;;;;;;0.60;0.60;;;;;;;7.34;100.00;94629.28;5132377;28;20502;-50
2021/12/30 05:45:33;;;;;;;0.40;0.30;;;;;;;7.47;100.00;94645.34;5132449;28;20466;-51
2021/12/30 05:48:02;;;;;;;0.30;0.20;;;;;;;7.46;100.00;94645.63;5132760;28;20425;-50
2021/12/30 05:50:32;;;;;;;0.60;0.60;;;;;;;7.35;100.00;94654.59;5132754;28;20431;-50
2021/12/30 05:53:01;;;;;;;0.40;0.30;;;;;;;7.44;100.00;94661.69;5132433;28;20513;-50
2021/12/30 05:55:31;;;;;;;0.30;0.20;;;;;;;7.33;100.00;94668.06;5132456;27;20913;-50
2021/12/30 05:58:00;;;;;;;0.30;0.20;;;;;;;7.34;100.00;94676.72;5132395;28;20431;-51
2021/12/30 06:00:31;;;;;;;0.30;0.30;;;;;;;7.35;100.00;94667.78;5132055;28;20552;-51
2021/12/30 06:03:01;;;;;;;0.40;0.30;;;;;;;6.96;100.00;94654.31;5132396;28;20478;-50
2021/12/30 06:05:30;;;;;;;0.30;0.20;;;;;;;6.93;100.00;94618.75;5132363;27;20951;-50
2021/12/30 06:07:58;;;;;;;2.70;0.53;;;;;;;7.40;100.00;94687.03;5132187;28;20434;-51
2021/12/30 06:10:26;;;;;;;0.40;0.30;;;;;;;7.48;100.00;94694.41;5132286;28;20843;-49
2021/12/30 06:12:56;;;;;;;0.40;0.30;;;;;;;7.34;100.00;94697.81;5132188;28;21143;-50
2021/12/30 06:15:25;;;;;;;0.40;0.30;;;;;;;7.24;100.00;94711.78;5132562;27;20503;-50
2021/12/30 06:17:53;;;;;;;0.60;0.60;;;;;;;7.35;100.00;94704.69;5132161;28;20423;-50
2021/12/30 06:20:22;;;;;;;0.30;0.20;;;;;;;7.23;100.00;94710.22;5132019;28;20488;-50
2021/12/30 06:22:51;;;;;;;0.50;0.40;;;;;;;7.42;100.00;94716.53;5133029;27;20470;-51
2021/12/30 06:25:20;;;;;;;0.43;0.43;;;;;;;7.58;100.00;94720.75;5136081;27;20481;-50
2021/12/30 06:27:48;;;;;;;0.30;0.20;;;;;;;6.79;100.00;94609.00;5136048;27;20443;-50
2021/12/30 06:30:18;;;;;;;0.30;0.20;;;;;;;7.67;100.00;94729.72;5135906;27;20426;-50
2021/12/30 06:32:46;;;;;;;0.30;0.20;;;;;;;7.71;100.00;94734.47;5135637;27;20865;-50
2021/12/30 06:35:15;;;;;;;0.30;0.20;;;;;;;7.83;100.00;94743.69;5135974;27;20506;-50
2021/12/30 06:37:43;;;;;;;0.93;0.93;;;;;;;7.52;100.00;94716.53;5135813;27;20850;-50
2021/12/30 06:40:14;;;;;;;0.40;0.40;;;;;;;7.90;100.00;94746.03;5135333;27;20773;-50
2021/12/30 06:42:44;;;;;;;0.43;0.43;;;;;;;8.01;100.00;94745.78;5135728;27;20549;-51
2021/12/30 06:45:13;;;;;;;0.53;0.53;;;;;;;8.07;100.00;94755.25;5135404;27;20435;-51
2021/12/30 06:47:45;;;;;;;0.30;0.20;;;;;;;8.04;100.00;94750.53;5135483;27;20450;-51
2021/12/30 06:50:14;;;;;;;0.43;0.40;;;;;;;7.91;100.00;94747.63;5135496;27;20469;-51
2021/12/30 06:52:46;;;;;;;0.77;0.77;;;;;;;8.08;100.00;94756.03;5135451;27;20454;-51
2021/12/30 06:55:15;;;;;;;0.60;0.60;;;;;;;8.25;100.00;94756.53;5135209;27;20438;-50
2021/12/30 06:57:44;;;;;;;0.37;0.33;;;;;;;8.20;100.00;94759.19;5135074;27;20513;-51
2021/12/30 07:00:14;;;;;;;1.30;1.27;;;;;;;8.27;100.00;94767.66;5134851;27;20478;-51
2021/12/30 07:02:45;;;;;;;0.30;0.20;;;;;;;8.37;100.00;94772.13;5135040;27;20452;-50
2021/12/30 07:05:14;;;;;;;0.40;0.40;;;;;;;8.63;100.00;94784.19;5135273;27;20513;-50
2021/12/30 07:07:44;;;;;;;5.60;0.50;;;;;;;8.46;100.00;94746.75;5135023;27;20466;-50
2021/12/30 07:10:13;;;;;;;0.40;0.30;;;;;;;8.84;100.00;94796.25;5134615;27;20488;-51
2021/12/30 07:12:42;;;;;;;0.30;0.20;;;;;;;8.71;100.00;94765.94;5135182;27;20502;-50
2021/12/30 07:15:10;;;;;;;0.40;0.40;;;;;;;8.77;100.00;94796.56;5135202;27;20518;-50
2021/12/30 07:17:39;;;;;;;0.83;0.83;;;;;;;9.02;100.00;94797.50;5134798;27;20454;-50
2021/12/30 07:20:11;;;;;;;0.53;0.53;;;;;;;9.03;100.00;94799.09;5134424;27;20861;-51
2021/12/30 07:22:40;;;;;;;0.93;0.93;;;;;;;8.47;100.00;94777.38;5134883;27;20544;-50
2021/12/30 07:25:16;;;;;;;2.33;0.40;;;;;;;8.68;100.00;94808.72;5134834;27;20423;-50
2021/12/30 07:27:47;;;;;;;0.53;0.53;;;;;;;8.66;100.00;94805.56;5134973;27;20418;-51
2021/12/30 07:30:16;;;;;;;2.57;0.90;;;;;;;8.69;100.00;94809.53;5133877;27;21005;-50
2021/12/30 07:32:45;;;;;;;0.50;0.30;;;;;;;7.97;100.00;94705.13;5134246;27;20423;-49
2021/12/30 07:35:16;;;;;;;0.30;0.30;;;;;;;7.94;100.00;94747.09;5134403;27;20426;-50
2021/12/30 07:37:44;;;;;;;0.30;0.20;;;;;;;8.60;100.00;94811.16;5134624;27;20505;-51
2021/12/30 07:40:13;;;;;;;1.13;1.13;;;;;;;8.62;100.00;94799.25;5134857;27;20466;-50
2021/12/30 07:42:42;;;;;;;0.40;0.30;;;;;;;8.67;100.00;94824.88;5134086;27;20463;-50
2021/12/30 07:45:12;;;;;;;0.47;0.47;;;;;;;8.49;100.00;94820.16;5134255;27;20419;-50
2021/12/30 07:47:41;;;;;;;0.37;0.30;;;;;;;8.66;100.00;94824.06;5134116;27;20419;-50
2021/12/30 07:50:12;;;;;;;0.60;0.60;;;;;;;8.81;100.00;94833.78;5134468;27;20502;-50
2021/12/30 07:52:42;;;;;;;0.40;0.30;;;;;;;9.08;100.00;94838.72;5134322;27;20501;-50
2021/12/30 07:55:11;;;;;;;0.70;0.50;;;;;;;9.15;100.00;94836.56;5134373;27;20529;-50
2021/12/30 07:57:41;;;;;;;0.67;0.47;;;;;;;9.39;100.00;94838.28;5133882;27;20431;-50
2021/12/30 08:00:12;;;;;;;0.30;0.30;;;;;;;9.64;100.00;94847.94;5133668;27;20574;-50
2021/12/30 08:02:42;;;;;;;0.40;0.40;;;;;;;9.13;100.00;94756.75;5133483;27;21005;-50
2021/12/30 08:05:12;;;;;;;1.30;1.20;;;;;;;9.84;100.00;94847.03;5133848;27;20549;-50
2021/12/30 08:07:42;;;;;;;0.40;0.30;;;;;;;9.65;100.00;94851.38;5133608;27;20487;-50
2021/12/30 08:10:14;;;;;;;0.50;0.50;;;;;;;9.88;100.00;94856.00;5133845;27;20426;-50
2021/12/30 08:12:44;;;;;;;0.40;0.30;;;;;;;10.06;99.91;94864.06;5133711;27;20495;-50
2021/12/30 08:15:14;;;;;;;5.23;0.70;;;;;;;9.96;100.00;94860.69;5133963;27;20450;-51
2021/12/30 08:17:43;;;;;;;0.37;0.30;;;;;;;10.27;100.00;94862.06;5133562;27;20929;-50
2021/12/30 08:20:13;;;;;;;0.77;0.77;;;;;;;10.20;100.00;94854.44;5133578;27;20862;-50
2021/12/30 08:22:43;;;;;;;0.40;0.30;;;;;;;10.53;99.21;94866.06;5133672;27;20431;-50
2021/12/30 08:25:14;;;;;;;0.40;0.30;;;;;;;10.48;96.96;94874.06;5133357;27;21073;-50
2021/12/30 08:27:43;;;;;;;0.63;0.63;;;;;;;10.54;97.20;94880.13;5133350;27;20469;-49
2021/12/30 08:30:14;;;;;;;0.30;0.30;;;;;;;11.05;100.00;94870.59;5132861;27;20847;-50
2021/12/30 08:32:44;;;;;;;0.40;0.30;;;;;;;11.05;90.62;94883.84;5133288;27;20454;-50
2021/12/30 08:35:14;;;;;;;0.60;0.30;;;;;;;11.56;82.77;94888.53;5133162;27;20915;-50
2021/12/30 08:37:44;;;;;;;0.60;0.30;;;;;;;12.50;82.25;94888.22;5133200;27;20502;-49
2021/12/30 08:40:14;;;;;;;0.37;0.27;;;;;;;13.14;72.54;94887.38;5133104;27;20838;-50
2021/12/30 08:42:43;;;;;;;0.40;0.40;;;;;;;13.44;65.40;94883.34;5133438;27;20502;-50
2021/12/30 08:45:12;;;;;;;0.40;0.30;;;;;;;13.99;65.63;94884.81;5132511;27;20582;-50
2021/12/30 08:47:43;;;;;;;0.53;0.47;;;;;;;14.93;59.36;94890.03;5133165;27;20419;-51
2021/12/30 08:50:15;;;;;;;0.30;0.30;;;;;;;14.63;58.92;94883.59;5133184;27;20525;-51
2021/12/30 08:52:46;;;;;;;0.40;0.37;;;;;;;15.61;57.13;94894.13;5133047;27;20422;-53
2021/12/30 08:55:16;;;;;;;1.50;1.40;;;;;;;16.73;53.38;94882.38;5133141;27;20518;-55
2021/12/30 08:57:47;;;;;;;0.40;0.27;;;;;;;16.03;50.79;94815.09;5133135;27;20455;-55
2021/12/30 09:00:18;;;;;;;0.97;0.60;;;;;;;17.02;48.73;94887.03;5132973;27;20542;-55
2021/12/30 09:02:47;;;;;;;13.23;0.40;;;;;;;17.88;48.75;94890.16;5132611;27;20463;-54
2021/12/30 09:05:16;;;;;;;0.60;0.60;;;;;;;17.70;46.75;94889.47;5132870;27;20546;-53
2021/12/30 09:07:47;;;;;;;0.40;0.30;;;;;;;17.75;45.43;94891.97;5132689;27;20461;-53
2021/12/30 09:10:19;;;;;;;0.50;0.40;;;;;;;18.24;44.10;94882.31;5132448;27;20431;-52
2021/12/30 09:12:48;;;;;;;0.50;0.40;;;;;;;17.80;44.15;94896.34;5132409;27;20418;-52
2021/12/30 09:15:21;;;;;;;0.73;0.73;;;;;;;17.50;43.37;94884.03;5132817;27;20880;-52
2021/12/30 09:17:50;;;;;;;0.40;0.20;;;;;;;17.32;44.12;94894.03;5132521;28;20518;-52
2021/12/30 09:20:19;;;;;;;0.50;0.30;;;;;;;16.49;46.16;94888.19;5132971;28;20528;-52
2021/12/30 09:22:49;;;;;;;0.37;0.20;;;;;;;15.54;47.00;94902.56;5132685;28;20510;-52
2021/12/30 09:25:22;;;;;;;0.40;0.30;;;;;;;15.23;47.83;94902.56;5132576;27;20923;-52
2021/12/30 09:27:51;;;;;;;0.90;0.90;;;;;;;14.40;51.67;94903.34;5132483;27;20426;-54
2021/12/30 09:30:20;;;;;;;0.40;0.20;;;;;;;13.74;51.84;94890.69;5132790;28;20569;-53
2021/12/30 09:32:50;;;;;;;0.40;0.20;;;;;;;14.59;54.73;94900.53;5131980;27;20439;-53
2021/12/30 09:35:18;;;;;;;0.40;0.20;;;;;;;15.88;48.81;94905.34;5132401;28;20462;-53
2021/12/30 09:37:49;;;;;;;0.40;0.20;;;;;;;17.03;46.13;94897.41;5132987;27;20912;-53
2021/12/30 09:40:19;;;;;;;0.80;0.63;;;;;;;15.31;47.44;94905.59;5132478;28;20441;-53
2021/12/30 09:42:50;;;;;;;2.83;0.67;;;;;;;16.54;48.82;94905.22;5132855;27;20455;-52
2021/12/30 09:45:20;;;;;;;0.40;0.30;;;;;;;16.62;44.81;94899.09;5132255;28;20478;-52
2021/12/30 09:47:50;;;;;;;0.40;0.20;;;;;;;16.61;46.38;94908.22;5132847;28;20484;-52
2021/12/30 09:50:20;;;;;;;0.50;0.30;;;;;;;15.93;48.86;94898.25;5132603;27;20514;-52
2021/12/30 09:52:50;;;;;;;1.10;1.00;;;;;;;15.68;47.81;94911.25;5132079;28;20953;-52
2021/12/30 09:55:19;;;;;;;3.53;0.47;;;;;;;15.24;50.57;94912.16;5132783;28;20514;-52
2021/12/30 09:57:47;;;;;;;2.40;0.50;;;;;;;14.53;48.91;94917.72;5134804;27;20430;-53
2021/12/30 10:00:17;;;;;;;4.87;2.83;;;;;;;14.29;49.58;94885.22;5135767;27;20544;-53
2021/12/30 10:02:47;;;;;;;0.40;0.40;;;;;;;14.39;53.82;94922.34;5136213;27;20461;-54
2021/12/30 10:05:18;;;;;;;0.40;0.20;;;;;;;13.77;52.45;94922.06;5136652;27;20480;-53
2021/12/30 10:07:47;;;;;;;0.70;0.70;;;;;;;13.22;55.26;94908.00;5136074;27;20513;-54
2021/12/30 10:10:32;;;;;;;0.40;0.20;;;;;;;12.78;56.09;94897.06;5136370;27;20550;-53
2021/12/30 10:13:14;;;;;;;0.50;0.30;;;;;;;12.79;56.43;94929.75;5135893;27;20434;-52
2021/12/30 10:15:43;;;;;;;0.40;0.20;;;;;;;12.82;57.16;94876.00;5136041;27;20423;-52
2021/12/30 10:18:12;;;;;;;0.40;0.30;;;;;;;13.79;56.81;94933.19;5136188;27;20793;-52
2021/12/30 10:20:42;;;;;;;0.40;0.20;;;;;;;14.41;54.16;94920.94;5134640;27;21089;-53
2021/12/30 10:23:13;;;;;;;0.40;0.20;;;;;;;14.65;53.64;94915.28;5135789;27;20977;-53
2021/12/30 10:25:45;;;;;;;0.70;0.40;;;;;;;14.68;53.11;94925.34;5135530;27;21080;-53
2021/12/30 10:28:26;;;;;;;0.50;0.30;;;;;;;13.90;52.83;94929.25;5135693;27;20434;-53
2021/12/30 10:30:58;;;;;;;0.40;0.20;;;;;;;14.57;51.41;94919.47;5135652;27;21122;-54
2021/12/30 10:33:28;;;;;;;0.50;0.50;;;;;;;14.41;51.50;94925.47;5135496;27;20423;-54
2021/12/30 10:35:58;;;;;;;0.40;0.30;;;;;;;14.36;54.52;94936.25;5135560;27;20858;-52
2021/12/30 10:38:31;;;;;;;0.30;0.30;;;;;;;13.81;55.20;94939.00;5135749;27;20488;-52
2021/12/30 10:41:04;;;;;;;0.50;0.40;;;;;;;13.63;53.75;94947.13;5135380;27;20458;-52
2021/12/30 10:43:38;;;;;;;0.40;0.30;;;;;;;13.05;56.32;94952.97;5135440;27;20510;-52
2021/12/30 10:46:12;;;;;;;0.40;0.30;;;;;;;13.05;57.43;94947.66;5135596;27;20947;-52
2021/12/30 10:49:05;;;;;;;0.50;0.40;;;;;;;13.26;59.09;94956.88;5135491;27;20434;-52
2021/12/30 10:51:36;;;;;;;0.40;0.30;;;;;;;12.88;57.20;94960.69;5131163;27;20529;-52
2021/12/30 10:54:14;;;;;;;0.40;0.30;;;;;;;12.24;62.64;94964.13;5135449;27;20514;-52
2021/12/30 10:56:46;;;;;;;0.40;0.20;;;;;;;12.07;62.91;94961.94;5134996;27;20458;-52
2021/12/30 10:59:21;;;;;;;0.50;0.40;;;;;;;12.34;62.82;94965.84;5134899;27;20429;-52
2021/12/30 11:01:53;;;;;;;0.40;0.30;;;;;;;12.35;65.56;94956.75;5134672;27;20526;-52
2021/12/30 11:04:32;;;;;;;0.40;0.40;;;;;;;12.47;61.36;94971.19;5135061;27;20990;-52
2021/12/30 11:07:01;;;;;;;0.37;0.27;;;;;;;12.31;62.01;94959.22;5135136;27;20510;-51
2021/12/30 11:09:29;;;;;;;0.50;0.50;;;;;;;12.16;64.46;94969.28;5134305;27;20434;-51
2021/12/30 11:12:01;;;;;;;0.67;0.67;;;;;;;12.21;70.33;94964.69;5134826;27;21006;-50
2021/12/30 11:14:31;;;;;;;1.70;0.30;;;;;;;11.58;66.24;94911.06;5134817;27;20462;-50
2021/12/30 11:17:11;;;;;;;0.33;0.20;;;;;;;11.86;67.91;94967.81;5134614;27;20951;-50
2021/12/30 11:19:41;;;;;;;0.30;0.20;;;;;;;11.93;64.59;94970.91;5134578;27;20957;-50
2021/12/30 11:22:13;;;;;;;0.40;0.20;;;;;;;11.88;65.30;94978.94;5134738;27;20451;-50
2021/12/30 11:24:43;;;;;;;0.30;0.20;;;;;;;12.15;66.93;94973.00;5134863;27;20427;-50
2021/12/30 11:27:15;;;;;;;0.40;0.30;;;;;;;12.35;66.36;94972.72;5134391;27;20541;-50
2021/12/30 11:29:45;;;;;;;0.53;0.33;;;;;;;12.50;74.18;94983.91;5134527;27;20994;-50
2021/12/30 11:32:17;;;;;;;0.33;0.23;;;;;;;12.17;65.69;94965.56;5134129;27;20426;-50
2021/12/30 11:34:46;;;;;;;0.50;0.30;;;;;;;12.12;65.68;94990.28;5134244;27;20966;-50
2021/12/30 11:37:15;;;;;;;0.50;0.50;;;;;;;12.01;65.72;94986.22;5134217;27;20518;-50
2021/12/30 11:39:46;;;;;;;0.30;0.20;;;;;;;12.07;68.68;94993.81;5133957;27;21015;-50
2021/12/30 11:42:21;;;;;;;0.30;0.20;;;;;;;11.79;69.86;94994.69;5134056;27;20922;-49
2021/12/30 11:44:52;;;;;;;0.40;0.40;;;;;;;11.64;68.15;95004.72;5134056;27;20513;-50
2021/12/30 11:47:43;;;;;;;0.30;0.30;;;;;;;10.75;69.64;94884.16;5134426;27;20414;-50